Coleman A. Young Municipal Airport


Codes: KDET/DET
Name: Coleman A. Young Municipal Airport
City: Detroit
Country: United States
Elevation: 626 ft.
Wikipedia:

Photos at Coleman A. Young Municipal Airport


   Photos courtesy of SpottingLog. You can add your own sightings and photos by signing up for a free trial today.



No photos found.

Weather at Coleman A. Young Municipal Airport


Time (UTC)DescriptionTempratureWindCloud coverageVisibilityPressureHumidity
17-Jun-2024 06:00Moderate Rain21°C2 mph, W0%10000m1013hPa73%
17-Jun-2024 09:00Moderate Rain21°C7 mph, S33%10000m1014hPa80%
17-Jun-2024 12:00Broken Clouds22°C7 mph, SW58%10000m1014hPa84%
17-Jun-2024 15:00Broken Clouds29°C9 mph, SW79%10000m1015hPa62%
17-Jun-2024 18:00Light Rain34°C11 mph, SW84%10000m1015hPa42%
17-Jun-2024 21:00Broken Clouds35°C13 mph, SW53%10000m1014hPa35%
18-Jun-2024 00:00Scattered Clouds32°C7 mph, SW40%10000m1014hPa47%
18-Jun-2024 03:00Light Rain28°C7 mph, S18%10000m1016hPa70%
18-Jun-2024 06:00Light Rain26°C4 mph, SW46%10000m1017hPa73%
18-Jun-2024 09:00Light Rain25°C4 mph, SW99%10000m1018hPa73%
18-Jun-2024 12:00Overcast Clouds26°C7 mph, SW99%10000m1019hPa74%
18-Jun-2024 15:00Overcast Clouds31°C11 mph, SW100%10000m1019hPa50%
18-Jun-2024 18:00Overcast Clouds34°C13 mph, SW97%10000m1018hPa40%
18-Jun-2024 21:00Broken Clouds34°C11 mph, SW65%10000m1019hPa38%
19-Jun-2024 00:00Broken Clouds32°C7 mph, S75%10000m1019hPa47%
19-Jun-2024 03:00Moderate Rain26°C2 mph, SE100%10000m1021hPa84%
19-Jun-2024 06:00Light Rain25°C4 mph, S81%10000m1020hPa87%
19-Jun-2024 09:00Light Rain24°C4 mph, SW93%10000m1021hPa89%
19-Jun-2024 12:00Overcast Clouds25°C4 mph, W92%10000m1023hPa80%
19-Jun-2024 15:00Overcast Clouds31°C4 mph, SW97%10000m1023hPa53%
19-Jun-2024 18:00Overcast Clouds32°C7 mph, SW98%10000m1023hPa45%
19-Jun-2024 21:00Overcast Clouds34°C9 mph, SW100%10000m1022hPa35%
20-Jun-2024 00:00Overcast Clouds32°C7 mph, SW100%10000m1023hPa44%
20-Jun-2024 03:00Overcast Clouds28°C2 mph, NW97%10000m1024hPa61%
20-Jun-2024 06:00Light Rain26°C2 mph, NE92%10000m1025hPa71%
20-Jun-2024 09:00Light Rain24°C2 mph, N43%10000m1025hPa81%
20-Jun-2024 12:00Broken Clouds22°C7 mph, NE61%10000m1026hPa80%
20-Jun-2024 15:00Overcast Clouds26°C7 mph, NE88%10000m1027hPa57%
20-Jun-2024 18:00Broken Clouds30°C7 mph, NE70%10000m1026hPa47%
20-Jun-2024 21:00Scattered Clouds31°C9 mph, E42%10000m1024hPa46%
21-Jun-2024 00:00Broken Clouds26°C9 mph, NE53%10000m1025hPa58%
21-Jun-2024 03:00Overcast Clouds22°C7 mph, NE100%10000m1025hPa58%
21-Jun-2024 06:00Broken Clouds21°C4 mph, NE74%10000m1025hPa62%
21-Jun-2024 09:00Scattered Clouds20°C2 mph, NE47%10000m1024hPa64%
21-Jun-2024 12:00Scattered Clouds23°C2 mph, E45%10000m1024hPa58%
21-Jun-2024 15:00Few Clouds30°C2 mph, SE12%10000m1023hPa44%
21-Jun-2024 18:00Clear Sky35°C4 mph, S6%10000m1021hPa33%
21-Jun-2024 21:00Light Rain32°C4 mph, SW29%10000m1019hPa44%
22-Jun-2024 00:00Scattered Clouds30°C2 mph, E30%10000m1018hPa51%
22-Jun-2024 03:00Light Rain27°C4 mph, SW75%10000m1018hPa67%